sensor_id;sensor_type;location;lat;lon;timestamp;pressure;altitude;pressure_sealevel;temperature;humidity
71567;BME280;59403;47.456;19.120;2023-01-20T00:00:21;99656.19;;;1.64;100.00
71567;BME280;59403;47.456;19.120;2023-01-20T00:02:47;99645.50;;;1.67;100.00
71567;BME280;59403;47.456;19.120;2023-01-20T00:05:17;99645.63;;;1.66;100.00
71567;BME280;59403;47.456;19.120;2023-01-20T00:07:44;99642.31;;;1.64;100.00
71567;BME280;59403;47.456;19.120;2023-01-20T00:10:24;99647.88;;;1.59;100.00
71567;BME280;59403;47.456;19.120;2023-01-20T00:13:04;99661.06;;;1.58;100.00
71567;BME280;59403;47.456;19.120;2023-01-20T00:15:31;99654.16;;;1.57;100.00
71567;BME280;59403;47.456;19.120;2023-01-20T00:17:58;99662.09;;;1.55;100.00
71567;BME280;59403;47.456;19.120;2023-01-20T00:20:25;99671.50;;;1.58;100.00
71567;BME280;59403;47.456;19.120;2023-01-20T00:22:52;99674.31;;;1.55;100.00
71567;BME280;59403;47.456;19.120;2023-01-20T00:25:19;99688.78;;;1.59;100.00
71567;BME280;59403;47.456;19.120;2023-01-20T00:27:46;99691.78;;;1.54;100.00
71567;BME280;59403;47.456;19.120;2023-01-20T00:30:17;99697.00;;;1.54;100.00
71567;BME280;59403;47.456;19.120;2023-01-20T00:32:44;99694.25;;;1.56;100.00
71567;BME280;59403;47.456;19.120;2023-01-20T00:35:11;99699.13;;;1.49;100.00
71567;BME280;59403;47.456;19.120;2023-01-20T00:37:38;99697.31;;;1.50;100.00
71567;BME280;59403;47.456;19.120;2023-01-20T00:40:06;99691.28;;;1.49;100.00
71567;BME280;59403;47.456;19.120;2023-01-20T00:42:33;99693.06;;;1.49;100.00
71567;BME280;59403;47.456;19.120;2023-01-20T00:45:00;99701.13;;;1.46;100.00
71567;BME280;59403;47.456;19.120;2023-01-20T00:47:28;99710.72;;;1.45;100.00
71567;BME280;59403;47.456;19.120;2023-01-20T00:49:56;99718.19;;;1.50;100.00
71567;BME280;59403;47.456;19.120;2023-01-20T00:52:23;99708.72;;;1.49;100.00
71567;BME280;59403;47.456;19.120;2023-01-20T00:54:49;99702.31;;;1.53;100.00
71567;BME280;59403;47.456;19.120;2023-01-20T00:57:16;99706.81;;;1.51;100.00
71567;BME280;59403;47.456;19.120;2023-01-20T00:59:43;99706.09;;;1.49;100.00
71567;BME280;59403;47.456;19.120;2023-01-20T01:02:10;99707.06;;;1.48;100.00
71567;BME280;59403;47.456;19.120;2023-01-20T01:04:38;99702.78;;;1.47;100.00
71567;BME280;59403;47.456;19.120;2023-01-20T01:07:07;99690.81;;;1.44;100.00
71567;BME280;59403;47.456;19.120;2023-01-20T01:09:34;99681.78;;;1.48;100.00
71567;BME280;59403;47.456;19.120;2023-01-20T01:12:01;99675.75;;;1.48;100.00
71567;BME280;59403;47.456;19.120;2023-01-20T01:14:32;99674.69;;;1.50;100.00
71567;BME280;59403;47.456;19.120;2023-01-20T01:17:07;99669.94;;;1.44;100.00
71567;BME280;59403;47.456;19.120;2023-01-20T01:19:34;99669.09;;;1.44;100.00
71567;BME280;59403;47.456;19.120;2023-01-20T01:22:04;99660.09;;;1.48;100.00
71567;BME280;59403;47.456;19.120;2023-01-20T01:24:31;99661.16;;;1.45;100.00
71567;BME280;59403;47.456;19.120;2023-01-20T01:26:58;99656.66;;;1.47;100.00
71567;BME280;59403;47.456;19.120;2023-01-20T01:29:25;99646.09;;;1.49;100.00
71567;BME280;59403;47.456;19.120;2023-01-20T01:31:52;99642.78;;;1.47;100.00
71567;BME280;59403;47.456;19.120;2023-01-20T01:34:21;99642.06;;;1.45;100.00
71567;BME280;59403;47.456;19.120;2023-01-20T01:36:48;99636.13;;;1.43;100.00
71567;BME280;59403;47.456;19.120;2023-01-20T01:39:16;99635.44;;;1.41;100.00
71567;BME280;59403;47.456;19.120;2023-01-20T01:41:43;99633.53;;;1.43;100.00
71567;BME280;59403;47.456;19.120;2023-01-20T01:44:12;99634.25;;;1.45;100.00
71567;BME280;59403;47.456;19.120;2023-01-20T01:46:42;99628.44;;;1.41;100.00
71567;BME280;59403;47.456;19.120;2023-01-20T01:49:12;99627.34;;;1.33;100.00
71567;BME280;59403;47.456;19.120;2023-01-20T01:51:45;99625.22;;;1.38;100.00
71567;BME280;59403;47.456;19.120;2023-01-20T01:54:17;99622.84;;;1.35;100.00
71567;BME280;59403;47.456;19.120;2023-01-20T01:56:47;99633.53;;;1.32;100.00
71567;BME280;59403;47.456;19.120;2023-01-20T01:59:16;99620.63;;;1.30;100.00
71567;BME280;59403;47.456;19.120;2023-01-20T02:01:45;99614.44;;;1.31;100.00
71567;BME280;59403;47.456;19.120;2023-01-20T02:04:17;99616.81;;;1.34;100.00
71567;BME280;59403;47.456;19.120;2023-01-20T02:06:48;99619.53;;;1.33;100.00
71567;BME280;59403;47.456;19.120;2023-01-20T02:09:18;99610.41;;;1.27;100.00
71567;BME280;59403;47.456;19.120;2023-01-20T02:11:52;99613.37;;;1.23;100.00
71567;BME280;59403;47.456;19.120;2023-01-20T02:14:22;99617.41;;;1.27;100.00
71567;BME280;59403;47.456;19.120;2023-01-20T02:16:57;99611.47;;;1.25;100.00
71567;BME280;59403;47.456;19.120;2023-01-20T02:22:33;99616.69;;;1.25;100.00
71567;BME280;59403;47.456;19.120;2023-01-20T02:28:14;99621.19;;;1.23;100.00
71567;BME280;59403;47.456;19.120;2023-01-20T02:33:49;99611.72;;;1.22;100.00
71567;BME280;59403;47.456;19.120;2023-01-20T02:36:25;99615.25;;;1.21;100.00
71567;BME280;59403;47.456;19.120;2023-01-20T02:38:56;99616.22;;;1.20;100.00
71567;BME280;59403;47.456;19.120;2023-01-20T02:41:35;99624.03;;;1.20;100.00
71567;BME280;59403;47.456;19.120;2023-01-20T02:44:10;99618.72;;;1.21;100.00
71567;BME280;59403;47.456;19.120;2023-01-20T02:46:47;99617.03;;;1.20;100.00
71567;BME280;59403;47.456;19.120;2023-01-20T02:49:22;99620.72;;;1.17;100.00
71567;BME280;59403;47.456;19.120;2023-01-20T02:51:55;99621.31;;;1.21;100.00
71567;BME280;59403;47.456;19.120;2023-01-20T02:54:26;99637.06;;;1.20;100.00
71567;BME280;59403;47.456;19.120;2023-01-20T02:56:57;99638.84;;;1.19;100.00
71567;BME280;59403;47.456;19.120;2023-01-20T02:59:29;99633.28;;;1.24;100.00
71567;BME280;59403;47.456;19.120;2023-01-20T03:01:58;99640.28;;;1.23;100.00
71567;BME280;59403;47.456;19.120;2023-01-20T03:04:33;99637.44;;;1.26;100.00
71567;BME280;59403;47.456;19.120;2023-01-20T03:07:02;99643.69;;;1.24;100.00
71567;BME280;59403;47.456;19.120;2023-01-20T03:09:36;99646.81;;;1.29;100.00
71567;BME280;59403;47.456;19.120;2023-01-20T03:12:09;99650.47;;;1.26;100.00
71567;BME280;59403;47.456;19.120;2023-01-20T03:14:39;99645.50;;;1.23;100.00
71567;BME280;59403;47.456;19.120;2023-01-20T03:17:06;99649.75;;;1.24;100.00
71567;BME280;59403;47.456;19.120;2023-01-20T03:19:34;99654.84;;;1.26;100.00
71567;BME280;59403;47.456;19.120;2023-01-20T03:22:01;99652.38;;;1.24;100.00
71567;BME280;59403;47.456;19.120;2023-01-20T03:24:29;99654.72;;;1.27;100.00
71567;BME280;59403;47.456;19.120;2023-01-20T03:26:58;99658.41;;;1.25;100.00
71567;BME280;59403;47.456;19.120;2023-01-20T03:29:25;99659.25;;;1.25;100.00
71567;BME280;59403;47.456;19.120;2023-01-20T03:31:56;99662.44;;;1.17;100.00
71567;BME280;59403;47.456;19.120;2023-01-20T03:34:24;99664.09;;;1.18;100.00
71567;BME280;59403;47.456;19.120;2023-01-20T03:36:54;99666.81;;;1.17;100.00
71567;BME280;59403;47.456;19.120;2023-01-20T03:39:22;99662.78;;;1.24;100.00
71567;BME280;59403;47.456;19.120;2023-01-20T03:42:02;99663.28;;;1.29;100.00
71567;BME280;59403;47.456;19.120;2023-01-20T03:44:49;99656.28;;;1.30;100.00
71567;BME280;59403;47.456;19.120;2023-01-20T03:47:27;99654.53;;;1.30;100.00
71567;BME280;59403;47.456;19.120;2023-01-20T03:50:08;99659.72;;;1.30;100.00
71567;BME280;59403;47.456;19.120;2023-01-20T03:52:41;99655.19;;;1.32;100.00
71567;BME280;59403;47.456;19.120;2023-01-20T03:55:13;99650.94;;;1.31;100.00
71567;BME280;59403;47.456;19.120;2023-01-20T03:57:46;99651.53;;;1.35;100.00
71567;BME280;59403;47.456;19.120;2023-01-20T04:00:17;99658.91;;;1.30;100.00
71567;BME280;59403;47.456;19.120;2023-01-20T04:02:46;99656.28;;;1.30;100.00
71567;BME280;59403;47.456;19.120;2023-01-20T04:05:13;99650.22;;;1.29;100.00
71567;BME280;59403;47.456;19.120;2023-01-20T04:07:42;99643.25;;;1.30;100.00
71567;BME280;59403;47.456;19.120;2023-01-20T04:10:12;99637.19;;;1.29;100.00
71567;BME280;59403;47.456;19.120;2023-01-20T04:12:40;99635.66;;;1.27;100.00
71567;BME280;59403;47.456;19.120;2023-01-20T04:15:09;99631.66;;;1.34;100.00
71567;BME280;59403;47.456;19.120;2023-01-20T04:17:39;99637.66;;;1.34;100.00
71567;BME280;59403;47.456;19.120;2023-01-20T04:20:10;99638.38;;;1.36;100.00
71567;BME280;59403;47.456;19.120;2023-01-20T04:22:45;99643.25;;;1.30;100.00
71567;BME280;59403;47.456;19.120;2023-01-20T04:25:19;99638.88;;;1.30;100.00
71567;BME280;59403;47.456;19.120;2023-01-20T04:27:47;99646.81;;;1.29;100.00
71567;BME280;59403;47.456;19.120;2023-01-20T04:30:14;99652.25;;;1.26;100.00
71567;BME280;59403;47.456;19.120;2023-01-20T04:32:41;99644.22;;;1.29;100.00
71567;BME280;59403;47.456;19.120;2023-01-20T04:35:10;99639.91;;;1.28;100.00
71567;BME280;59403;47.456;19.120;2023-01-20T04:37:38;99639.19;;;1.26;100.00
71567;BME280;59403;47.456;19.120;2023-01-20T04:40:08;99634.00;;;1.26;100.00
71567;BME280;59403;47.456;19.120;2023-01-20T04:42:35;99632.94;;;1.28;100.00
71567;BME280;59403;47.456;19.120;2023-01-20T04:45:03;99643.69;;;1.24;100.00
71567;BME280;59403;47.456;19.120;2023-01-20T04:47:33;99656.13;;;1.20;100.00
71567;BME280;59403;47.456;19.120;2023-01-20T04:49:59;99658.28;;;1.26;100.00
71567;BME280;59403;47.456;19.120;2023-01-20T04:52:26;99662.22;;;1.32;100.00
71567;BME280;59403;47.456;19.120;2023-01-20T04:54:55;99648.22;;;1.33;100.00
71567;BME280;59403;47.456;19.120;2023-01-20T04:57:23;99640.50;;;1.31;100.00
71567;BME280;59403;47.456;19.120;2023-01-20T04:59:50;99630.69;;;1.35;100.00
71567;BME280;59403;47.456;19.120;2023-01-20T05:02:17;99621.09;;;1.35;100.00
71567;BME280;59403;47.456;19.120;2023-01-20T05:04:44;99610.78;;;1.34;100.00
71567;BME280;59403;47.456;19.120;2023-01-20T05:07:11;99610.53;;;1.37;100.00
71567;BME280;59403;47.456;19.120;2023-01-20T05:09:38;99606.97;;;1.38;100.00
71567;BME280;59403;47.456;19.120;2023-01-20T05:12:05;99605.19;;;1.38;100.00
71567;BME280;59403;47.456;19.120;2023-01-20T05:14:33;99602.00;;;1.35;100.00
71567;BME280;59403;47.456;19.120;2023-01-20T05:17:00;99605.66;;;1.32;100.00
71567;BME280;59403;47.456;19.120;2023-01-20T05:19:27;99591.94;;;1.30;100.00
71567;BME280;59403;47.456;19.120;2023-01-20T05:21:53;99599.38;;;1.35;100.00
71567;BME280;59403;47.456;19.120;2023-01-20T05:24:21;99601.03;;;1.36;100.00
71567;BME280;59403;47.456;19.120;2023-01-20T05:26:48;99603.63;;;1.36;100.00
71567;BME280;59403;47.456;19.120;2023-01-20T05:29:15;99602.72;;;1.37;100.00
71567;BME280;59403;47.456;19.120;2023-01-20T05:31:43;99609.56;;;1.38;100.00
71567;BME280;59403;47.456;19.120;2023-01-20T05:34:10;99609.56;;;1.38;100.00
71567;BME280;59403;47.456;19.120;2023-01-20T05:36:37;99613.72;;;1.40;100.00
71567;BME280;59403;47.456;19.120;2023-01-20T05:39:04;99611.00;;;1.42;100.00
71567;BME280;59403;47.456;19.120;2023-01-20T05:41:31;99611.72;;;1.44;100.00
71567;BME280;59403;47.456;19.120;2023-01-20T05:43:57;99618.72;;;1.43;100.00
71567;BME280;59403;47.456;19.120;2023-01-20T05:46:24;99610.75;;;1.45;100.00
71567;BME280;59403;47.456;19.120;2023-01-20T05:48:52;99609.81;;;1.46;100.00
71567;BME280;59403;47.456;19.120;2023-01-20T05:51:19;99614.22;;;1.45;100.00
71567;BME280;59403;47.456;19.120;2023-01-20T05:53:46;99609.59;;;1.49;100.00
71567;BME280;59403;47.456;19.120;2023-01-20T05:56:13;99613.16;;;1.48;100.00
71567;BME280;59403;47.456;19.120;2023-01-20T05:58:40;99614.56;;;1.52;100.00
71567;BME280;59403;47.456;19.120;2023-01-20T06:01:09;99614.44;;;1.53;100.00
71567;BME280;59403;47.456;19.120;2023-01-20T06:03:36;99608.28;;;1.54;100.00
71567;BME280;59403;47.456;19.120;2023-01-20T06:06:07;99613.25;;;1.57;100.00
71567;BME280;59403;47.456;19.120;2023-01-20T06:08:34;99611.47;;;1.58;100.00
71567;BME280;59403;47.456;19.120;2023-01-20T06:11:01;99614.91;;;1.58;100.00
71567;BME280;59403;47.456;19.120;2023-01-20T06:13:28;99618.09;;;1.62;100.00
71567;BME280;59403;47.456;19.120;2023-01-20T06:15:55;99614.56;;;1.63;100.00
71567;BME280;59403;47.456;19.120;2023-01-20T06:18:23;99615.41;;;1.63;100.00
71567;BME280;59403;47.456;19.120;2023-01-20T06:20:50;99616.09;;;1.65;100.00
71567;BME280;59403;47.456;19.120;2023-01-20T06:23:18;99614.31;;;1.66;100.00
71567;BME280;59403;47.456;19.120;2023-01-20T06:25:45;99609.81;;;1.68;100.00
71567;BME280;59403;47.456;19.120;2023-01-20T06:28:11;99604.59;;;1.68;100.00
71567;BME280;59403;47.456;19.120;2023-01-20T06:30:38;99606.22;;;1.69;100.00
71567;BME280;59403;47.456;19.120;2023-01-20T06:33:07;99604.59;;;1.68;100.00
71567;BME280;59403;47.456;19.120;2023-01-20T06:35:35;99613.97;;;1.70;100.00
71567;BME280;59403;47.456;19.120;2023-01-20T06:38:02;99605.31;;;1.70;100.00
71567;BME280;59403;47.456;19.120;2023-01-20T06:40:30;99611.22;;;1.72;100.00
71567;BME280;59403;47.456;19.120;2023-01-20T06:42:57;99615.50;;;1.73;100.00
71567;BME280;59403;47.456;19.120;2023-01-20T06:45:24;99613.59;;;1.75;100.00
71567;BME280;59403;47.456;19.120;2023-01-20T06:47:51;99614.44;;;1.75;100.00
71567;BME280;59403;47.456;19.120;2023-01-20T06:50:18;99622.13;;;1.77;100.00
71567;BME280;59403;47.456;19.120;2023-01-20T06:52:45;99626.28;;;1.79;100.00
71567;BME280;59403;47.456;19.120;2023-01-20T06:55:11;99628.75;;;1.81;100.00
71567;BME280;59403;47.456;19.120;2023-01-20T06:57:40;99628.66;;;1.82;100.00
71567;BME280;59403;47.456;19.120;2023-01-20T07:00:08;99643.25;;;1.85;100.00
71567;BME280;59403;47.456;19.120;2023-01-20T07:02:35;99644.78;;;1.87;100.00
71567;BME280;59403;47.456;19.120;2023-01-20T07:05:02;99637.19;;;1.84;100.00
71567;BME280;59403;47.456;19.120;2023-01-20T07:07:32;99644.41;;;1.92;100.00
71567;BME280;59403;47.456;19.120;2023-01-20T07:10:01;99639.91;;;1.94;100.00
71567;BME280;59403;47.456;19.120;2023-01-20T07:12:28;99645.97;;;1.94;100.00
71567;BME280;59403;47.456;19.120;2023-01-20T07:14:57;99664.13;;;1.96;100.00
71567;BME280;59403;47.456;19.120;2023-01-20T07:17:23;99649.97;;;1.98;100.00
71567;BME280;59403;47.456;19.120;2023-01-20T07:19:50;99652.47;;;2.00;100.00
71567;BME280;59403;47.456;19.120;2023-01-20T07:22:17;99651.53;;;2.01;100.00
71567;BME280;59403;47.456;19.120;2023-01-20T07:24:44;99655.66;;;2.03;100.00
71567;BME280;59403;47.456;19.120;2023-01-20T07:27:11;99666.00;;;2.05;100.00
71567;BME280;59403;47.456;19.120;2023-01-20T07:29:39;99659.81;;;2.06;100.00
71567;BME280;59403;47.456;19.120;2023-01-20T07:32:07;99662.31;;;2.07;100.00
71567;BME280;59403;47.456;19.120;2023-01-20T07:34:34;99667.41;;;2.09;100.00
71567;BME280;59403;47.456;19.120;2023-01-20T07:37:01;99669.22;;;2.08;100.00
71567;BME280;59403;47.456;19.120;2023-01-20T07:39:33;99666.59;;;2.08;100.00
71567;BME280;59403;47.456;19.120;2023-01-20T07:42:00;99662.06;;;2.10;100.00
71567;BME280;59403;47.456;19.120;2023-01-20T07:44:28;99663.88;;;2.10;100.00
71567;BME280;59403;47.456;19.120;2023-01-20T07:46:55;99665.50;;;2.11;100.00
71567;BME280;59403;47.456;19.120;2023-01-20T07:49:24;99667.19;;;2.12;100.00
71567;BME280;59403;47.456;19.120;2023-01-20T07:51:51;99669.66;;;2.13;100.00
71567;BME280;59403;47.456;19.120;2023-01-20T07:54:18;99672.16;;;2.15;100.00
71567;BME280;59403;47.456;19.120;2023-01-20T07:56:45;99685.09;;;2.16;100.00
71567;BME280;59403;47.456;19.120;2023-01-20T07:59:12;99687.69;;;2.16;100.00
71567;BME280;59403;47.456;19.120;2023-01-20T08:01:39;99680.72;;;2.17;100.00
71567;BME280;59403;47.456;19.120;2023-01-20T08:04:08;99678.91;;;2.17;100.00
71567;BME280;59403;47.456;19.120;2023-01-20T08:06:36;99686.63;;;2.19;100.00
71567;BME280;59403;47.456;19.120;2023-01-20T08:09:03;99686.53;;;2.20;100.00
71567;BME280;59403;47.456;19.120;2023-01-20T08:11:30;99689.00;;;2.22;100.00
71567;BME280;59403;47.456;19.120;2023-01-20T08:13:57;99690.66;;;2.23;100.00
71567;BME280;59403;47.456;19.120;2023-01-20T08:16:24;99685.44;;;2.23;100.00
71567;BME280;59403;47.456;19.120;2023-01-20T08:18:52;99700.16;;;2.24;100.00
71567;BME280;59403;47.456;19.120;2023-01-20T08:21:22;99695.75;;;2.24;100.00
71567;BME280;59403;47.456;19.120;2023-01-20T08:23:51;99689.72;;;2.24;100.00
71567;BME280;59403;47.456;19.120;2023-01-20T08:26:19;99693.00;;;2.26;100.00
71567;BME280;59403;47.456;19.120;2023-01-20T08:28:49;99699.91;;;2.27;100.00
71567;BME280;59403;47.456;19.120;2023-01-20T08:31:17;99702.41;;;2.28;100.00
71567;BME280;59403;47.456;19.120;2023-01-20T08:33:45;99701.44;;;2.29;100.00
71567;BME280;59403;47.456;19.120;2023-01-20T08:36:14;99702.16;;;2.31;100.00
71567;BME280;59403;47.456;19.120;2023-01-20T08:38:42;99705.59;;;2.32;100.00
71567;BME280;59403;47.456;19.120;2023-01-20T08:41:13;99700.38;;;2.32;100.00
71567;BME280;59403;47.456;19.120;2023-01-20T08:43:40;99703.81;;;2.33;100.00
71567;BME280;59403;47.456;19.120;2023-01-20T08:46:09;99702.88;;;2.33;100.00
71567;BME280;59403;47.456;19.120;2023-01-20T08:48:37;99699.41;;;2.33;100.00
71567;BME280;59403;47.456;19.120;2023-01-20T08:51:05;99708.09;;;2.33;100.00
71567;BME280;59403;47.456;19.120;2023-01-20T08:53:33;99705.47;;;2.33;100.00
71567;BME280;59403;47.456;19.120;2023-01-20T08:56:01;99701.34;;;2.31;100.00
71567;BME280;59403;47.456;19.120;2023-01-20T08:58:29;99706.44;;;2.33;100.00
71567;BME280;59403;47.456;19.120;2023-01-20T09:00:56;99709.84;;;2.33;100.00
71567;BME280;59403;47.456;19.120;2023-01-20T09:03:24;99708.94;;;2.34;100.00
71567;BME280;59403;47.456;19.120;2023-01-20T09:05:51;99706.44;;;2.33;100.00
71567;BME280;59403;47.456;19.120;2023-01-20T09:08:18;99708.94;;;2.34;100.00
71567;BME280;59403;47.456;19.120;2023-01-20T09:10:46;99710.56;;;2.35;100.00
71567;BME280;59403;47.456;19.120;2023-01-20T09:13:13;99709.63;;;2.36;100.00
71567;BME280;59403;47.456;19.120;2023-01-20T09:15:41;99710.31;;;2.38;100.00
71567;BME280;59403;47.456;19.120;2023-01-20T09:18:08;99706.78;;;2.39;100.00
71567;BME280;59403;47.456;19.120;2023-01-20T09:20:35;99705.69;;;2.42;100.00
71567;BME280;59403;47.456;19.120;2023-01-20T09:23:02;99704.63;;;2.44;100.00
71567;BME280;59403;47.456;19.120;2023-01-20T09:25:29;99690.72;;;2.44;100.00
71567;BME280;59403;47.456;19.120;2023-01-20T09:27:59;99688.94;;;2.44;100.00
71567;BME280;59403;47.456;19.120;2023-01-20T09:30:27;99684.44;;;2.46;100.00
71567;BME280;59403;47.456;19.120;2023-01-20T09:32:55;99673.84;;;2.48;100.00
71567;BME280;59403;47.456;19.120;2023-01-20T09:35:24;99666.72;;;2.50;100.00
71567;BME280;59403;47.456;19.120;2023-01-20T09:37:51;99664.69;;;2.53;100.00
71567;BME280;59403;47.456;19.120;2023-01-20T09:40:39;99656.59;;;2.56;100.00
71567;BME280;59403;47.456;19.120;2023-01-20T09:43:32;99652.91;;;2.59;100.00
71567;BME280;59403;47.456;19.120;2023-01-20T09:46:43;99663.25;;;2.60;100.00
71567;BME280;59403;47.456;19.120;2023-01-20T09:49:52;99656.78;;;2.64;100.00
71567;BME280;59403;47.456;19.120;2023-01-20T09:52:42;99649.78;;;2.65;100.00
71567;BME280;59403;47.456;19.120;2023-01-20T09:55:32;99641.00;;;2.66;100.00
71567;BME280;59403;47.456;19.120;2023-01-20T09:58:08;99639.47;;;2.63;100.00
71567;BME280;59403;47.456;19.120;2023-01-20T10:00:40;99633.75;;;2.69;100.00
71567;BME280;59403;47.456;19.120;2023-01-20T10:03:13;99623.97;;;2.71;100.00
71567;BME280;59403;47.456;19.120;2023-01-20T10:05:47;99615.19;;;2.72;100.00
71567;BME280;59403;47.456;19.120;2023-01-20T10:08:18;99618.63;;;2.73;100.00
71567;BME280;59403;47.456;19.120;2023-01-20T10:10:52;99611.59;;;2.73;100.00
71567;BME280;59403;47.456;19.120;2023-01-20T10:13:25;99608.06;;;2.74;100.00
71567;BME280;59403;47.456;19.120;2023-01-20T10:15:55;99605.31;;;2.76;100.00
71567;BME280;59403;47.456;19.120;2023-01-20T10:18:27;99589.75;;;2.74;100.00
71567;BME280;59403;47.456;19.120;2023-01-20T10:21:01;99589.63;;;2.76;100.00
71567;BME280;59403;47.456;19.120;2023-01-20T10:23:36;99596.81;;;2.83;100.00
71567;BME280;59403;47.456;19.120;2023-01-20T10:26:10;99596.00;;;2.83;100.00
71567;BME280;59403;47.456;19.120;2023-01-20T10:28:48;99602.63;;;2.87;100.00
71567;BME280;59403;47.456;19.120;2023-01-20T10:31:24;99606.91;;;2.88;100.00
71567;BME280;59403;47.456;19.120;2023-01-20T10:33:54;99602.25;;;2.91;100.00
71567;BME280;59403;47.456;19.120;2023-01-20T10:36:27;99599.75;;;2.90;100.00
71567;BME280;59403;47.456;19.120;2023-01-20T10:38:58;99594.12;;;2.94;100.00
71567;BME280;59403;47.456;19.120;2023-01-20T10:41:33;99600.78;;;2.98;100.00
71567;BME280;59403;47.456;19.120;2023-01-20T10:44:05;99607.06;;;2.96;100.00
71567;BME280;59403;47.456;19.120;2023-01-20T10:46:46;99606.94;;;2.97;100.00
71567;BME280;59403;47.456;19.120;2023-01-20T10:49:41;99607.66;;;2.99;100.00
71567;BME280;59403;47.456;19.120;2023-01-20T10:52:23;99609.31;;;3.00;100.00
71567;BME280;59403;47.456;19.120;2023-01-20T10:55:02;99606.72;;;3.00;100.00
71567;BME280;59403;47.456;19.120;2023-01-20T10:57:33;99611.81;;;3.02;100.00
71567;BME280;59403;47.456;19.120;2023-01-20T11:00:05;99615.13;;;3.04;100.00
71567;BME280;59403;47.456;19.120;2023-01-20T11:02:34;99617.75;;;3.04;100.00
71567;BME280;59403;47.456;19.120;2023-01-20T11:05:12;99620.22;;;3.05;100.00
71567;BME280;59403;47.456;19.120;2023-01-20T11:07:44;99609.06;;;3.03;100.00
71567;BME280;59403;47.456;19.120;2023-01-20T11:10:16;99605.63;;;3.03;100.00
71567;BME280;59403;47.456;19.120;2023-01-20T11:12:44;99602.16;;;3.02;100.00
71567;BME280;59403;47.456;19.120;2023-01-20T11:15:18;99613.47;;;3.03;100.00
71567;BME280;59403;47.456;19.120;2023-01-20T11:17:45;99607.38;;;3.02;100.00
71567;BME280;59403;47.456;19.120;2023-01-20T11:20:18;99597.19;;;2.99;100.00
71567;BME280;59403;47.456;19.120;2023-01-20T11:22:48;99591.16;;;2.99;100.00
71567;BME280;59403;47.456;19.120;2023-01-20T11:25:25;99586.03;;;2.97;100.00
71567;BME280;59403;47.456;19.120;2023-01-20T11:27:53;99574.91;;;2.95;100.00
71567;BME280;59403;47.456;19.120;2023-01-20T11:30:24;99575.97;;;2.93;100.00
71567;BME280;59403;47.456;19.120;2023-01-20T11:33:06;99563.16;;;2.90;100.00
71567;BME280;59403;47.456;19.120;2023-01-20T11:35:33;99553.63;;;2.89;100.00
71567;BME280;59403;47.456;19.120;2023-01-20T11:38:20;99552.94;;;2.87;100.00
71567;BME280;59403;47.456;19.120;2023-01-20T11:40:51;99552.25;;;2.85;100.00
71567;BME280;59403;47.456;19.120;2023-01-20T11:43:28;99551.28;;;2.86;100.00
71567;BME280;59403;47.456;19.120;2023-01-20T11:46:09;99543.44;;;2.86;100.00
71567;BME280;59403;47.456;19.120;2023-01-20T11:48:36;99542.44;;;2.77;100.00
71567;BME280;59403;47.456;19.120;2023-01-20T11:51:04;99548.88;;;2.73;100.00
71567;BME280;59403;47.456;19.120;2023-01-20T11:53:32;99554.09;;;2.73;100.00
71567;BME280;59403;47.456;19.120;2023-01-20T11:56:03;99553.78;;;2.67;100.00
71567;BME280;59403;47.456;19.120;2023-01-20T11:58:49;99548.75;;;2.54;100.00
71567;BME280;59403;47.456;19.120;2023-01-20T12:01:21;99536.91;;;2.50;100.00
71567;BME280;59403;47.456;19.120;2023-01-20T12:04:20;99537.00;;;2.49;100.00
71567;BME280;59403;47.456;19.120;2023-01-20T12:06:52;99536.19;;;2.48;100.00
71567;BME280;59403;47.456;19.120;2023-01-20T12:09:27;99542.38;;;2.47;100.00
71567;BME280;59403;47.456;19.120;2023-01-20T12:11:57;99537.28;;;2.46;100.00
71567;BME280;59403;47.456;19.120;2023-01-20T12:14:28;99539.03;;;2.45;100.00
71567;BME280;59403;47.456;19.120;2023-01-20T12:17:15;99543.59;;;2.43;100.00
71567;BME280;59403;47.456;19.120;2023-01-20T12:19:57;99540.28;;;2.41;100.00
71567;BME280;59403;47.456;19.120;2023-01-20T12:22:39;99542.75;;;2.43;100.00
71567;BME280;59403;47.456;19.120;2023-01-20T12:25:20;99539.88;;;2.46;100.00
71567;BME280;59403;47.456;19.120;2023-01-20T12:27:50;99540.84;;;2.45;100.00
71567;BME280;59403;47.456;19.120;2023-01-20T12:30:33;99545.09;;;2.46;100.00
71567;BME280;59403;47.456;19.120;2023-01-20T12:33:03;99541.66;;;2.45;100.00
71567;BME280;59403;47.456;19.120;2023-01-20T12:35:35;99538.81;;;2.48;100.00
71567;BME280;59403;47.456;19.120;2023-01-20T12:38:06;99540.59;;;2.48;100.00
71567;BME280;59403;47.456;19.120;2023-01-20T12:40:40;99540.00;;;2.44;100.00
71567;BME280;59403;47.456;19.120;2023-01-20T12:43:25;99535.63;;;2.45;100.00
71567;BME280;59403;47.456;19.120;2023-01-20T12:48:59;99534.91;;;2.43;100.00
71567;BME280;59403;47.456;19.120;2023-01-20T12:51:42;99535.75;;;2.43;100.00
71567;BME280;59403;47.456;19.120;2023-01-20T12:54:37;99531.09;;;2.47;100.00
71567;BME280;59403;47.456;19.120;2023-01-20T12:57:17;99547.84;;;2.44;100.00
71567;BME280;59403;47.456;19.120;2023-01-20T12:59:51;99551.44;;;2.43;100.00
71567;BME280;59403;47.456;19.120;2023-01-20T13:02:52;99549.75;;;2.42;100.00
71567;BME280;59403;47.456;19.120;2023-01-20T13:05:38;99553.56;;;2.38;100.00
71567;BME280;59403;47.456;19.120;2023-01-20T13:08:19;99557.28;;;2.36;100.00
71567;BME280;59403;47.456;19.120;2023-01-20T13:11:01;99556.84;;;2.30;100.00
71567;BME280;59403;47.456;19.120;2023-01-20T13:13:38;99560.38;;;2.29;100.00
71567;BME280;59403;47.456;19.120;2023-01-20T13:16:13;99554.22;;;2.30;100.00
71567;BME280;59403;47.456;19.120;2023-01-20T13:18:55;99556.97;;;2.29;100.00
71567;BME280;59403;47.456;19.120;2023-01-20T13:21:33;99560.38;;;2.29;100.00